Time;durP1;ratioP1;P1;durP2;ratioP2;P2;SDS_P1;SDS_P2;PMS_P1;PMS_P2;Temp;Humidity;BMP_temperature;BMP_pressure;BME280_temperature;BME280_humidity;BME280_pressure;Samples;Min_cycle;Max_cycle;Signal;HPM_P1;HPM_P2
2021/12/16 00:04:28;;;;;;;23.35;7.95;;;8.40;99.90;;;6.73;100.00;102174.50;4938760;28;20152;-81
2021/12/16 00:09:28;;;;;;;29.33;7.50;;;8.30;99.90;;;6.68;100.00;102192.00;4946977;28;20505;-80
2021/12/16 00:31:45;;;;;;;19.70;8.15;;;8.30;99.90;;;6.69;100.00;102198.94;4908132;28;20522;-81
2021/12/16 00:34:17;;;;;;;24.63;8.35;;;8.30;99.90;;;6.66;100.00;102181.53;4863234;28;20103;-81
2021/12/16 00:36:47;;;;;;;25.38;8.80;;;8.30;99.90;;;6.68;100.00;102177.16;4866875;28;20027;-81
2021/12/16 00:39:29;;;;;;;26.50;7.68;;;8.30;99.90;;;6.65;100.00;102199.84;4940628;28;20459;-81
2021/12/16 00:42:06;;;;;;;28.83;8.95;;;8.30;99.90;;;6.65;100.00;102192.00;4981323;28;20038;-80
2021/12/16 00:49:52;;;;;;;13.10;6.60;;;8.20;99.90;;;6.70;100.00;102195.47;4902465;28;20037;-81
2021/12/16 00:54:58;;;;;;;28.85;8.02;;;;;;;6.65;100.00;102198.13;4961890;23;20773;-81
2021/12/16 00:57:29;;;;;;;18.83;7.45;;;8.30;99.90;;;6.65;100.00;102208.59;4917239;28;20053;-81
2021/12/16 00:59:58;;;;;;;18.15;7.18;;;8.30;99.90;;;6.70;100.00;102226.88;4895811;28;20035;-81
2021/12/16 01:05:44;;;;;;;19.85;6.95;;;8.30;99.90;;;6.71;100.00;102219.00;4891144;28;20041;-82
2021/12/16 01:49:08;;;;;;;31.70;7.72;;;8.30;99.90;;;6.61;100.00;102255.69;4910569;28;20076;-80
2021/12/16 01:51:41;;;;;;;15.73;6.32;;;8.20;99.90;;;6.60;100.00;102267.06;4929597;28;20034;-79
2021/12/16 01:57:11;;;;;;;14.10;5.57;;;8.20;99.90;;;6.53;100.00;102274.09;4908315;28;20029;-80
2021/12/16 01:59:40;;;;;;;16.52;6.75;;;8.10;99.90;;;6.52;100.00;102285.41;4937735;28;20044;-79
2021/12/16 02:02:34;;;;;;;17.05;7.60;;;8.10;99.90;;;6.51;100.00;102283.69;4962899;28;20470;-80
2021/12/16 02:05:27;;;;;;;21.58;8.38;;;8.10;99.90;;;6.45;100.00;102281.94;4954714;28;20107;-80
2021/12/16 02:10:30;;;;;;;20.58;8.50;;;8.10;99.90;;;6.46;100.00;102281.09;4970653;28;20686;-80
2021/12/16 02:37:23;;;;;;;27.48;8.82;;;8.00;99.90;;;6.43;100.00;102405.81;4954054;28;20080;-79
2021/12/16 02:39:53;;;;;;;21.88;8.45;;;8.00;99.90;;;6.42;100.00;102393.63;4904787;28;20055;-79
2021/12/16 02:42:32;;;;;;;23.58;10.05;;;8.00;99.90;;;6.39;100.00;102278.50;4930628;28;20614;-80
2021/12/16 02:50:25;;;;;;;18.65;8.45;;;8.00;99.90;;;6.40;100.00;102332.59;4942926;28;20606;-79
2021/12/16 02:52:55;;;;;;;22.60;8.10;;;8.00;99.90;;;6.34;100.00;102538.41;4938300;28;20124;-80
2021/12/16 02:55:24;;;;;;;18.88;8.23;;;8.00;99.90;;;6.35;100.00;102357.00;4978843;28;20400;-80
2021/12/16 02:57:59;;;;;;;16.30;7.82;;;8.00;99.90;;;6.34;100.00;102342.19;4926109;28;20055;-79
2021/12/16 03:00:41;;;;;;;23.03;8.57;;;8.00;99.90;;;6.33;100.00;102361.38;4942954;28;20473;-80
2021/12/16 03:03:08;;;;;;;23.00;8.40;;;8.00;99.90;;;6.35;100.00;102367.47;4952764;28;20277;-80
2021/12/16 03:05:34;;;;;;;18.42;7.63;;;8.00;99.90;;;6.33;100.00;102402.38;4873113;28;20036;-80
2021/12/16 03:08:05;;;;;;;25.42;8.27;;;8.00;99.90;;;6.42;100.00;102404.09;4925199;28;20048;-80
2021/12/16 03:13:43;;;;;;;23.00;8.40;;;8.00;99.90;;;6.42;100.00;102443.34;4908567;28;20359;-79
2021/12/16 03:16:36;;;;;;;15.20;7.70;;;8.00;99.90;;;6.40;100.00;102448.56;4966395;28;20081;-80
2021/12/16 03:19:56;;;;;;;22.35;8.48;;;;;;;6.43;100.00;102397.97;4908998;28;20072;-80
2021/12/16 03:22:04;;;;;;;16.58;7.30;;;8.00;99.90;;;6.40;100.00;102471.25;4936322;28;20041;-80
2021/12/16 03:38:04;;;;;;;12.65;6.68;;;8.10;99.90;;;6.44;100.00;102507.88;4939866;28;20026;-79
2021/12/16 03:40:31;;;;;;;;;;;8.10;99.90;;;6.44;100.00;102512.25;4932308;28;20034;-80
2021/12/16 03:43:08;;;;;;;21.08;7.82;;;8.10;99.90;;;6.46;100.00;102520.97;4939902;28;19989;-80
2021/12/16 03:49:14;;;;;;;20.90;7.00;;;8.10;99.90;;;6.45;100.00;102514.00;4935052;28;20123;-79
2021/12/16 03:52:08;;;;;;;16.15;7.28;;;8.10;99.90;;;6.45;100.00;102509.63;4916339;28;20741;-79
2021/12/16 03:54:50;;;;;;;23.15;8.00;;;8.10;99.90;;;6.47;100.00;102507.00;4957342;28;20046;-79
2021/12/16 03:57:21;;;;;;;19.67;7.32;;;8.10;99.90;;;6.52;100.00;102515.72;4929910;28;20109;-79
2021/12/16 03:59:51;;;;;;;16.25;6.97;;;8.10;99.90;;;6.48;100.00;102508.72;4938143;28;20072;-79
2021/12/16 04:02:30;;;;;;;18.23;7.47;;;8.10;99.90;;;6.52;100.00;102515.72;4956534;28;20038;-80
2021/12/16 04:04:58;;;;;;;20.88;7.60;;;8.10;99.90;;;6.52;100.00;102519.22;4947881;28;20044;-78
2021/12/16 04:07:38;;;;;;;16.90;6.93;;;8.20;99.90;;;6.53;100.00;102522.72;4935143;28;20179;-80
2021/12/16 04:10:17;;;;;;;13.85;5.45;;;8.10;99.90;;;6.50;100.00;102522.69;4967940;28;20113;-79
2021/12/16 04:12:43;;;;;;;16.38;7.28;;;8.10;99.90;;;6.51;100.00;102520.09;4934919;28;20116;-79
2021/12/16 04:15:12;;;;;;;14.52;6.03;;;8.10;99.90;;;6.52;100.00;102511.38;4939907;28;20566;-80
2021/12/16 04:17:38;;;;;;;21.30;6.50;;;8.20;99.90;;;6.55;100.00;102500.03;4901108;28;20058;-79
2021/12/16 04:20:15;;;;;;;28.38;6.47;;;8.20;99.90;;;6.60;100.00;102510.47;4874534;28;20026;-79
2021/12/16 04:22:48;;;;;;;17.15;7.50;;;8.20;99.90;;;6.54;100.00;102517.47;4893118;28;20130;-79
2021/12/16 04:25:26;;;;;;;20.73;7.28;;;8.20;99.90;;;6.56;100.00;102522.69;4897324;28;20032;-79
2021/12/16 04:27:59;;;;;;;16.05;5.95;;;8.20;99.90;;;6.60;100.00;102529.66;4880818;28;20542;-79
2021/12/16 04:30:30;;;;;;;21.65;6.25;;;8.20;99.90;;;6.63;100.00;102529.69;4929449;28;20456;-79
2021/12/16 04:32:57;;;;;;;14.07;5.10;;;8.20;99.90;;;6.63;100.00;102542.78;4936051;28;20375;-79
2021/12/16 04:35:24;;;;;;;12.98;4.97;;;8.20;99.90;;;6.65;100.00;102543.63;4912848;28;20798;-79
2021/12/16 04:37:51;;;;;;;17.20;4.30;;;8.30;99.90;;;6.69;100.00;102537.50;4885841;28;20035;-79
2021/12/16 04:40:18;;;;;;;9.60;4.07;;;8.30;99.90;;;6.69;100.00;102553.22;4928625;28;20025;-78
2021/12/16 04:42:48;;;;;;;11.68;4.68;;;8.30;99.90;;;6.68;100.00;102541.00;4942570;28;20037;-79
2021/12/16 04:45:20;;;;;;;11.57;3.70;;;8.30;99.90;;;6.70;100.00;102562.81;4926351;28;20045;-80
2021/12/16 04:47:51;;;;;;;12.73;2.90;;;8.30;99.90;;;6.72;100.00;102562.84;4945601;28;20025;-79
2021/12/16 04:50:19;;;;;;;7.10;2.65;;;8.30;99.90;;;6.73;100.00;102560.19;4953181;28;20044;-79
2021/12/16 04:52:45;;;;;;;2.88;1.45;;;8.30;99.90;;;6.73;100.00;102557.56;4918718;28;20758;-79
2021/12/16 04:55:19;;;;;;;7.93;2.63;;;8.30;99.90;;;6.71;100.00;102542.75;4930184;28;20037;-79
2021/12/16 04:57:48;;;;;;;6.93;1.88;;;8.30;99.90;;;6.74;100.00;102553.22;4983459;28;20040;-80
2021/12/16 05:00:23;;;;;;;3.30;2.15;;;8.30;99.90;;;6.69;100.00;102529.66;4927811;28;20045;-79
2021/12/16 05:02:49;;;;;;;5.53;1.98;;;8.30;99.90;;;6.66;100.00;102539.28;4899123;28;20019;-79
2021/12/16 05:05:17;;;;;;;7.70;2.10;;;8.30;99.90;;;6.66;100.00;102541.88;4930809;28;20065;-79
2021/12/16 05:07:47;;;;;;;6.72;2.10;;;9.70;99.90;;;6.65;100.00;102543.63;4902647;28;20038;-79
2021/12/16 05:10:18;;;;;;;9.75;1.98;;;8.30;99.90;;;6.66;100.00;102552.38;4947272;28;20025;-79
2021/12/16 05:12:55;;;;;;;2.92;1.60;;;8.30;99.90;;;6.64;100.00;102567.19;4964532;28;20034;-79
2021/12/16 05:15:29;;;;;;;10.07;1.70;;;8.20;99.90;;;6.67;100.00;102561.94;4931899;28;20043;-79
2021/12/16 05:18:01;;;;;;;5.70;1.33;;;8.20;99.90;;;6.64;100.00;102583.75;4919301;28;20037;-79
2021/12/16 05:20:39;;;;;;;5.97;1.42;;;8.20;99.90;;;6.65;100.00;102592.47;4891691;28;20464;-79
2021/12/16 05:26:16;;;;;;;1.90;1.13;;;8.20;99.90;;;6.63;100.00;102616.06;4929062;28;20705;-79
2021/12/16 05:29:00;;;;;;;7.95;1.23;;;9.40;99.90;;;6.62;100.00;102600.34;4930260;28;20098;-79
2021/12/16 05:31:28;;;;;;;6.00;1.77;;;8.20;99.90;;;6.61;100.00;102596.88;4900429;28;20026;-79
2021/12/16 05:34:00;;;;;;;7.00;1.88;;;8.20;99.90;;;6.61;100.00;102594.25;4931614;28;20049;-80
2021/12/16 05:36:27;;;;;;;4.57;1.25;;;8.20;99.90;;;6.63;100.00;102602.97;4941007;28;20039;-79
2021/12/16 05:38:53;;;;;;;8.60;2.03;;;8.20;99.90;;;6.61;100.00;102604.72;4958920;28;20034;-79
2021/12/16 05:41:21;;;;;;;6.65;2.42;;;8.30;99.90;;;6.63;100.00;102612.56;4925119;28;20494;-80
2021/12/16 05:43:53;;;;;;;6.65;2.03;;;8.20;99.90;;;6.60;100.00;102612.56;4945854;28;20064;-80
2021/12/16 05:46:23;;;;;;;6.38;2.05;;;8.20;99.90;;;6.61;100.00;102624.75;4939172;28;20036;-79
2021/12/16 05:48:54;;;;;;;4.07;2.38;;;8.20;99.90;;;6.58;100.00;102621.28;4955871;28;20054;-79
2021/12/16 05:51:26;;;;;;;6.57;2.25;;;8.20;99.90;;;6.58;100.00;102628.25;4904528;28;20027;-80
2021/12/16 05:53:53;;;;;;;7.97;2.92;;;8.20;99.90;;;6.55;100.00;102620.41;4907431;28;20046;-79
2021/12/16 05:56:27;;;;;;;10.45;2.88;;;8.10;99.90;;;6.56;100.00;102628.25;4942356;28;20026;-79
2021/12/16 05:58:54;;;;;;;10.45;3.22;;;8.10;99.90;;;6.54;100.00;102579.41;4959379;28;21581;-79
2021/12/16 06:01:29;;;;;;;5.13;2.15;;;8.70;99.90;;;6.57;100.00;102597.75;4910696;28;20057;-79
2021/12/16 06:03:55;;;;;;;5.10;2.53;;;8.20;99.90;;;6.58;100.00;102602.94;4965015;28;20045;-80
2021/12/16 06:06:23;;;;;;;8.10;1.98;;;8.20;99.90;;;6.55;100.00;102600.34;4932659;28;20497;-79
2021/12/16 06:08:52;;;;;;;4.50;1.92;;;8.10;99.90;;;6.56;100.00;102611.69;4953765;28;20029;-79
2021/12/16 06:11:23;;;;;;;3.90;1.58;;;8.20;99.90;;;6.59;100.00;102606.47;4913678;28;20027;-79
2021/12/16 06:14:15;;;;;;;4.13;1.77;;;8.20;99.90;;;6.60;100.00;102617.81;4916816;28;20030;-80
2021/12/16 06:28:08;;;;;;;11.35;2.25;;;8.20;99.90;;;6.57;100.00;102692.84;4938614;28;20575;-79
2021/12/16 06:30:48;;;;;;;8.13;2.38;;;8.20;99.90;;;6.59;100.00;102700.69;4880683;28;20030;-80
2021/12/16 06:33:19;;;;;;;7.45;2.38;;;8.20;99.90;;;6.62;100.00;102724.25;4981484;28;20100;-79
2021/12/16 06:35:52;;;;;;;5.43;2.20;;;8.20;99.90;;;6.62;100.00;102737.34;4946244;28;20042;-79
2021/12/16 06:38:23;;;;;;;7.55;1.80;;;8.30;99.90;;;6.64;100.00;102730.34;4947477;28;20584;-79
2021/12/16 06:40:57;;;;;;;3.42;1.75;;;8.20;99.90;;;6.62;100.00;102726.88;4929875;28;20028;-80
2021/12/16 06:43:23;;;;;;;9.27;2.80;;;8.20;99.90;;;6.58;100.00;102733.81;4955355;28;20179;-79
2021/12/16 06:45:53;;;;;;;11.27;2.95;;;8.20;99.90;;;6.62;100.00;102728.63;4946379;28;20095;-79
2021/12/16 06:48:30;;;;;;;7.85;1.48;;;8.20;99.90;;;6.61;100.00;102753.94;4980274;28;20524;-80
2021/12/16 06:51:02;;;;;;;10.82;2.88;;;8.20;99.90;;;6.60;100.00;102754.78;4959312;28;20477;-79
2021/12/16 06:53:45;;;;;;;9.00;2.72;;;8.20;99.90;;;6.55;100.00;102760.00;4970529;28;20036;-79
2021/12/16 06:56:19;;;;;;;7.28;3.28;;;8.10;99.90;;;6.54;100.00;102765.22;4935697;28;20944;-79
2021/12/16 06:59:56;;;;;;;3.28;1.90;;;8.20;99.90;;;6.54;100.00;102776.59;4910447;28;20033;-79
2021/12/16 07:02:04;;;;;;;9.73;2.17;;;8.10;99.90;;;6.50;100.00;102785.31;4901220;28;21624;-79
2021/12/16 07:04:30;;;;;;;9.20;2.22;;;8.10;99.90;;;6.51;100.00;102780.94;4937376;28;20061;-79
2021/12/16 07:06:57;;;;;;;8.82;2.97;;;8.10;99.90;;;6.48;100.00;102784.44;4908925;28;20520;-79
2021/12/16 07:09:29;;;;;;;7.15;2.13;;;;;;;6.48;100.00;102758.25;4917248;28;20018;-79
2021/12/16 07:11:58;;;;;;;7.88;2.55;;;8.10;99.90;;;6.45;100.00;102745.13;4946103;28;20047;-80
2021/12/16 07:14:36;;;;;;;6.47;2.00;;;8.00;99.90;;;6.44;100.00;102745.16;4942401;28;20732;-79
2021/12/16 07:17:15;;;;;;;11.30;2.60;;;8.00;99.90;;;6.39;100.00;102716.34;4935136;28;20093;-79
2021/12/16 07:19:43;;;;;;;10.18;2.97;;;8.00;99.90;;;6.37;100.00;102720.69;4944398;28;20037;-80
2021/12/16 07:22:15;;;;;;;9.30;2.45;;;7.90;99.90;;;6.30;100.00;102711.94;4920901;28;20026;-80
2021/12/16 07:24:41;;;;;;;6.68;2.28;;;7.90;99.90;;;6.28;100.00;102721.53;4901533;28;20043;-81
2021/12/16 07:27:10;;;;;;;5.78;2.28;;;7.90;99.90;;;6.24;100.00;102719.81;4885197;28;20118;-80
2021/12/16 07:29:37;;;;;;;9.73;2.45;;;7.80;99.90;;;6.11;100.00;102713.66;4919284;28;20058;-79
2021/12/16 07:32:12;;;;;;;9.80;2.00;;;7.70;99.90;;;5.98;100.00;102718.81;4881231;28;20045;-80
2021/12/16 07:34:38;;;;;;;7.28;1.33;;;7.60;99.90;;;5.96;100.00;102716.19;4877823;28;20050;-79
2021/12/16 07:37:08;;;;;;;4.32;1.70;;;;;;;5.91;100.00;102720.50;4905340;28;20034;-80
2021/12/16 07:39:38;;;;;;;8.10;1.52;;;7.50;99.90;;;5.73;100.00;102727.38;4947348;28;20037;-80
2021/12/16 07:42:09;;;;;;;7.95;1.75;;;7.30;99.90;;;5.65;100.00;102728.19;4900344;28;20034;-79
2021/12/16 07:44:41;;;;;;;5.03;1.30;;;;;;;5.65;100.00;102725.59;4901899;28;20034;-79
2021/12/16 07:47:11;;;;;;;4.20;1.50;;;7.30;99.90;;;5.63;100.00;102729.94;4921766;28;20176;-79
2021/12/16 07:49:43;;;;;;;7.20;1.60;;;7.30;99.90;;;5.59;100.00;102806.56;4945438;28;20034;-79
2021/12/16 07:52:16;;;;;;;4.95;1.50;;;7.30;99.90;;;5.55;100.00;102787.38;4922382;28;20025;-79
2021/12/16 07:54:47;;;;;;;5.22;1.25;;;7.20;99.90;;;5.43;100.00;102759.41;4929007;28;20147;-80
2021/12/16 07:57:13;;;;;;;6.07;1.35;;;7.10;99.90;;;5.39;100.00;102748.94;4901036;28;20048;-79
2021/12/16 07:59:40;;;;;;;3.50;1.60;;;7.00;99.90;;;5.30;100.00;102747.13;4938915;28;20039;-79
2021/12/16 08:02:11;;;;;;;5.25;1.23;;;6.90;99.90;;;5.28;100.00;102735.78;4884477;28;20101;-80
2021/12/16 08:04:44;;;;;;;7.00;1.42;;;6.90;99.90;;;5.32;100.00;102748.88;4862337;28;20092;-80
2021/12/16 08:07:24;;;;;;;2.83;1.20;;;7.00;99.90;;;5.34;100.00;102772.41;4899412;28;20072;-79
2021/12/16 08:09:50;;;;;;;3.85;1.40;;;7.00;99.90;;;5.29;100.00;102776.72;4896737;28;20038;-79
2021/12/16 08:12:18;;;;;;;3.03;1.38;;;6.90;99.90;;;5.23;100.00;102772.34;4931770;28;20031;-80
2021/12/16 08:14:52;;;;;;;9.48;1.42;;;6.90;99.90;;;5.30;100.00;102786.31;4954800;28;20034;-80
2021/12/16 08:17:18;;;;;;;6.97;1.55;;;7.00;99.90;;;5.36;100.00;102796.81;4930162;28;20059;-80
2021/12/16 08:19:45;;;;;;;5.10;0.95;;;7.10;99.90;;;5.47;100.00;102810.84;4935283;28;20056;-79
2021/12/16 08:22:20;;;;;;;3.78;1.27;;;7.10;99.90;;;5.52;100.00;102793.44;4922965;28;20131;-79
2021/12/16 08:24:46;;;;;;;6.35;1.20;;;7.20;99.90;;;5.63;100.00;102782.19;4927134;28;20213;-79
2021/12/16 08:27:13;;;;;;;11.65;1.90;;;7.30;99.90;;;5.76;100.00;102810.16;4955456;28;20038;-79
2021/12/16 08:29:46;;;;;;;2.88;1.05;;;7.50;99.90;;;5.87;100.00;102818.94;4874609;28;20390;-80
2021/12/16 08:32:12;;;;;;;4.13;1.20;;;7.50;99.90;;;6.00;100.00;102819.06;4873661;28;20039;-80
2021/12/16 08:34:39;;;;;;;6.22;1.48;;;7.60;99.90;;;5.99;100.00;102827.78;4928039;28;20023;-79
2021/12/16 08:37:11;;;;;;;9.75;1.52;;;7.60;99.90;;;5.95;100.00;102814.69;4884769;28;20548;-79
2021/12/16 08:39:38;;;;;;;20.60;1.77;;;7.60;99.90;;;5.98;100.00;102845.19;4924737;28;20513;-80
2021/12/16 08:42:09;;;;;;;8.32;2.17;;;7.60;99.90;;;6.01;100.00;102845.22;4923230;28;20023;-79
2021/12/16 08:44:40;;;;;;;10.27;1.88;;;7.70;99.90;;;6.13;100.00;102852.25;4909395;28;20092;-80
2021/12/16 08:47:14;;;;;;;9.93;2.10;;;7.80;99.90;;;6.23;100.00;102835.75;4903285;28;20030;-79
2021/12/16 08:49:41;;;;;;;6.38;1.58;;;7.90;99.90;;;6.33;100.00;102821.88;4909860;28;20038;-80
2021/12/16 08:52:18;;;;;;;11.00;1.70;;;7.90;99.90;;;6.30;100.00;102811.38;4927907;28;20088;-81
2021/12/16 08:54:46;;;;;;;7.10;1.75;;;7.90;99.90;;;6.38;100.00;102826.25;4929514;28;20042;-80
2021/12/16 08:57:19;;;;;;;8.88;1.80;;;8.00;99.90;;;6.36;100.00;102834.94;4926015;28;20045;-79
2021/12/16 08:59:48;;;;;;;9.07;2.35;;;8.00;99.90;;;6.39;100.00;102821.00;4916360;28;20058;-80
2021/12/16 09:02:14;;;;;;;10.77;1.85;;;8.00;99.90;;;6.33;100.00;102858.50;4943325;28;20038;-80
2021/12/16 09:04:46;;;;;;;9.02;1.85;;;;;;;6.21;100.00;102857.56;4879233;28;20026;-80
2021/12/16 09:07:16;;;;;;;8.07;1.83;;;7.80;99.90;;;6.29;100.00;102859.34;4896362;28;20058;-79
2021/12/16 09:09:54;;;;;;;10.93;2.22;;;7.80;99.90;;;6.20;100.00;102835.75;4917428;28;20026;-79
2021/12/16 09:15:12;;;;;;;13.35;2.30;;;7.70;99.90;;;6.12;100.00;102824.38;5052871;27;20397;-81
2021/12/16 09:17:38;;;;;;;8.07;2.30;;;7.70;99.90;;;6.11;100.00;102823.50;4957822;28;20028;-82
2021/12/16 09:20:13;;;;;;;9.65;1.85;;;7.70;99.90;;;6.05;100.00;102823.47;4971695;28;20405;-81
2021/12/16 09:22:40;;;;;;;3.85;1.40;;;7.60;99.90;;;6.02;100.00;102825.19;4997049;28;20073;-81
2021/12/16 09:25:16;;;;;;;10.93;1.90;;;7.60;99.90;;;6.00;100.00;102833.00;4933007;28;20041;-81
2021/12/16 09:27:43;;;;;;;18.88;3.15;;;7.60;99.90;;;5.94;100.00;102823.41;4928684;28;20040;-82
2021/12/16 09:30:19;;;;;;;8.90;2.10;;;7.60;99.90;;;5.99;100.00;102827.78;4923557;28;20708;-82
2021/12/16 09:32:46;;;;;;;12.40;1.85;;;7.60;99.90;;;6.03;100.00;102824.34;4995826;28;20037;-81
2021/12/16 09:35:22;;;;;;;9.85;1.58;;;7.70;99.90;;;6.13;100.00;102841.81;4968126;28;20397;-81
2021/12/16 09:37:57;;;;;;;12.23;2.13;;;7.70;99.90;;;6.23;100.00;102841.00;4985152;28;20025;-81
2021/12/16 09:40:28;;;;;;;6.25;2.30;;;7.90;99.90;;;6.39;100.00;102854.16;4974080;28;20024;-81
2021/12/16 09:42:57;;;;;;;10.57;2.10;;;8.00;99.90;;;6.54;100.00;102862.06;4933202;28;20042;-81
2021/12/16 09:45:34;;;;;;;9.50;1.88;;;8.10;99.90;;;6.70;100.00;102869.13;4947869;28;20119;-81
2021/12/16 09:48:05;;;;;;;12.60;2.25;;;8.30;99.90;;;6.84;100.00;102863.06;4981979;28;20063;-81
2021/12/16 09:50:37;;;;;;;14.40;2.42;;;8.30;99.90;;;6.77;100.00;102856.94;4969550;28;20056;-84
2021/12/16 09:53:07;;;;;;;13.00;2.05;;;8.30;99.90;;;6.74;100.00;102855.19;4971749;28;20033;-81
2021/12/16 09:55:34;;;;;;;11.55;2.28;;;8.30;99.90;;;6.77;100.00;102855.19;4944897;28;20029;-81
2021/12/16 09:58:05;;;;;;;12.52;2.20;;;8.40;99.90;;;6.87;100.00;102860.44;4982391;28;20066;-81
2021/12/16 10:00:33;;;;;;;10.18;2.08;;;8.40;99.90;;;6.96;100.00;102855.25;4963600;28;20043;-81
2021/12/16 10:03:12;;;;;;;9.88;1.85;;;8.60;99.90;;;7.27;100.00;102860.53;4965693;28;20118;-81
2021/12/16 10:05:40;;;;;;;9.55;1.83;;;8.70;99.90;;;7.31;100.00;102844.81;4981999;28;20041;-82
2021/12/16 10:08:13;;;;;;;11.32;2.35;;;8.70;99.90;;;7.50;100.00;102845.72;4962956;28;20424;-82
2021/12/16 10:10:39;;;;;;;12.05;1.95;;;8.70;99.90;;;7.16;100.00;102819.47;4987677;28;20055;-82
2021/12/16 10:13:07;;;;;;;18.50;2.97;;;8.60;99.90;;;6.84;100.00;102800.22;4961815;28;20049;-81
2021/12/16 10:18:28;;;;;;;10.82;2.38;;;8.30;99.90;;;6.63;100.00;102801.03;4978254;28;20102;-82
2021/12/16 10:21:15;;;;;;;9.13;2.00;;;8.20;99.90;;;6.59;100.00;102805.41;4946675;28;20120;-82
2021/12/16 10:23:44;;;;;;;5.18;1.30;;;8.10;99.90;;;6.54;100.00;102808.00;4982179;28;20025;-84
2021/12/16 10:26:19;;;;;;;24.08;1.83;;;8.20;99.90;;;6.67;100.00;102816.75;4958456;28;20044;-81
2021/12/16 10:28:50;;;;;;;11.60;2.07;;;8.20;99.90;;;6.64;100.00;102813.25;4920547;28;20478;-81
2021/12/16 10:31:41;;;;;;;21.90;1.92;;;8.20;99.90;;;6.64;100.00;102802.78;4928307;28;20041;-81
2021/12/16 10:34:13;;;;;;;17.65;2.50;;;8.30;99.90;;;6.75;100.00;102828.13;4949047;28;20061;-81
2021/12/16 10:36:48;;;;;;;9.57;2.45;;;8.40;99.90;;;6.85;100.00;102833.41;4953024;28;20033;-82
2021/12/16 10:39:26;;;;;;;18.58;2.05;;;8.40;99.90;;;6.85;100.00;102829.03;4968019;28;20025;-81
2021/12/16 10:42:05;;;;;;;16.60;1.98;;;8.50;99.90;;;6.96;100.00;102815.97;4922824;28;20033;-82
2021/12/16 10:44:37;;;;;;;15.45;1.75;;;8.50;99.90;;;6.96;100.00;102819.44;4960094;28;20511;-82
2021/12/16 10:47:13;;;;;;;18.08;2.50;;;8.50;99.90;;;6.96;100.00;102816.84;4953820;28;20183;-81
2021/12/16 10:49:57;;;;;;;17.60;2.83;;;;;;;7.07;100.00;102824.72;4983214;28;20113;-82
2021/12/16 10:52:32;;;;;;;9.63;1.95;;;;;;;7.12;100.00;102812.47;5039245;28;20040;-82
2021/12/16 10:54:59;;;;;;;19.77;2.17;;;8.70;99.90;;;7.29;100.00;102820.34;4962803;28;20125;-82
2021/12/16 10:57:33;;;;;;;18.80;2.13;;;8.80;99.90;;;7.31;100.00;102812.50;4903033;28;20034;-82
2021/12/16 11:00:16;;;;;;;11.90;1.80;;;8.80;99.90;;;7.36;100.00;102818.59;4955365;28;20085;-82
2021/12/16 11:02:45;;;;;;;18.83;2.03;;;8.90;99.90;;;7.42;100.00;102797.66;4962385;28;20033;-82
2021/12/16 11:05:23;;;;;;;16.17;2.40;;;8.90;99.90;;;7.45;100.00;102804.63;4966128;28;20021;-82
2021/12/16 11:07:59;;;;;;;28.52;2.40;;;8.80;99.90;;;7.29;100.00;102788.91;4973495;28;20038;-82
2021/12/16 11:10:39;;;;;;;16.05;2.08;;;8.80;99.90;;;7.27;100.00;102792.41;4920707;28;20041;-82
2021/12/16 11:13:19;;;;;;;12.32;2.17;;;8.70;99.90;;;7.24;100.00;102784.56;4959759;28;20135;-82
2021/12/16 11:15:51;;;;;;;9.68;1.95;;;8.70;99.90;;;7.14;100.00;102768.81;4946076;28;22766;-83
2021/12/16 11:18:22;;;;;;;15.02;2.03;;;8.70;99.90;;;7.14;100.00;102776.66;4930401;28;20100;-82
2021/12/16 11:20:59;;;;;;;21.52;1.92;;;8.70;99.90;;;7.22;100.00;102781.94;4936887;28;20025;-81
2021/12/16 11:23:41;;;;;;;15.25;2.25;;;8.70;99.90;;;7.15;100.00;102764.47;4924274;28;20068;-82
2021/12/16 11:26:11;;;;;;;21.00;1.60;;;8.70;99.90;;;7.09;100.00;102760.09;4982630;28;20034;-82
2021/12/16 11:28:46;;;;;;;10.15;1.85;;;8.70;99.90;;;7.03;100.00;102754.84;4995070;28;20037;-82
2021/12/16 11:31:28;;;;;;;13.95;1.67;;;8.60;99.90;;;6.99;100.00;102753.97;4967235;28;20038;-81
2021/12/16 11:33:57;;;;;;;23.33;2.35;;;8.60;99.90;;;7.04;100.00;102763.56;4980171;28;20133;-82
2021/12/16 11:36:34;;;;;;;21.00;2.40;;;8.60;99.90;;;7.04;100.00;102750.47;4974209;28;20029;-82
2021/12/16 11:39:10;;;;;;;13.93;1.90;;;8.60;99.90;;;7.00;100.00;102744.38;4972924;28;20075;-81
2021/12/16 11:42:05;;;;;;;18.83;2.22;;;8.60;99.90;;;6.95;100.00;102752.25;4920277;28;20045;-81
2021/12/16 11:44:46;;;;;;;15.88;1.55;;;8.60;99.90;;;6.98;100.00;102746.13;4937031;28;20021;-83
2021/12/16 11:47:25;;;;;;;22.20;2.13;;;8.60;99.90;;;7.02;100.00;102741.72;4972487;28;20029;-82
2021/12/16 11:50:08;;;;;;;8.02;1.65;;;8.60;99.90;;;7.01;100.00;102755.72;4953190;28;20040;-82
2021/12/16 11:52:37;;;;;;;16.70;1.73;;;8.60;99.90;;;6.97;100.00;102745.22;4970085;28;20029;-82
2021/12/16 11:55:18;;;;;;;17.42;1.67;;;8.50;99.90;;;7.08;100.00;102752.22;4986825;28;20161;-81
2021/12/16 11:58:01;;;;;;;11.98;1.45;;;8.60;99.90;;;7.05;100.00;102731.28;4915017;28;20033;-81
2021/12/16 12:00:39;;;;;;;11.43;1.65;;;8.60;99.90;;;7.06;100.00;102740.88;4969828;28;20116;-82
2021/12/16 12:03:14;;;;;;;19.13;2.10;;;8.60;99.90;;;7.04;100.00;102750.47;4967269;28;20014;-81
2021/12/16 12:05:51;;;;;;;20.38;1.85;;;8.60;99.90;;;7.08;100.00;102745.22;4951506;28;20036;-81
2021/12/16 12:08:29;;;;;;;27.75;2.00;;;8.60;99.90;;;7.05;100.00;102747.84;4966092;28;20076;-82
2021/12/16 12:11:01;;;;;;;23.92;2.28;;;8.50;99.90;;;7.01;100.00;102759.22;4955758;28;20044;-81
2021/12/16 12:13:41;;;;;;;19.80;2.83;;;8.60;99.90;;;7.04;100.00;102949.56;4946789;28;20481;-81
2021/12/16 12:16:18;;;;;;;13.90;1.75;;;8.60;99.90;;;7.04;100.00;103175.75;4972927;28;20114;-81
2021/12/16 12:18:59;;;;;;;10.40;1.63;;;8.50;99.90;;;7.01;100.00;102861.38;4961214;28;20048;-82
2021/12/16 12:21:53;;;;;;;17.00;2.05;;;8.50;99.90;;;7.04;100.00;102926.88;4941649;28;20108;-80
2021/12/16 12:24:32;;;;;;;21.23;2.17;;;8.50;99.90;;;6.93;100.00;102939.94;4939725;28;20045;-81
2021/12/16 12:27:11;;;;;;;8.88;0.85;;;8.50;99.90;;;6.91;100.00;103025.47;4934836;28;20045;-82
2021/12/16 12:29:49;;;;;;;14.00;2.03;;;8.40;99.90;;;6.94;100.00;103001.91;4949271;28;20027;-81
2021/12/16 12:32:29;;;;;;;16.88;1.98;;;8.40;99.90;;;6.92;100.00;102981.81;4932452;28;20106;-82
2021/12/16 12:35:06;;;;;;;12.13;1.80;;;8.30;99.90;;;6.90;100.00;102955.63;4924948;28;20462;-81
2021/12/16 12:37:36;;;;;;;19.52;1.83;;;8.40;99.90;;;6.86;100.00;102932.91;4954481;28;20050;-81
2021/12/16 12:40:16;;;;;;;14.95;1.95;;;8.40;99.90;;;6.84;100.00;102915.44;4938992;28;20099;-79
2021/12/16 12:42:45;;;;;;;20.70;1.38;;;8.40;99.90;;;6.88;100.00;102909.34;4949910;28;20285;-81
2021/12/16 12:45:16;;;;;;;21.85;2.05;;;8.40;99.90;;;6.74;100.00;102884.00;4933338;28;20029;-80
2021/12/16 12:48:00;;;;;;;16.10;2.20;;;8.30;99.90;;;6.78;100.00;102870.03;4973335;28;20038;-81
2021/12/16 12:50:33;;;;;;;11.80;1.70;;;8.40;99.90;;;6.74;100.00;102867.41;4938352;28;20196;-81
2021/12/16 12:53:17;;;;;;;13.60;1.98;;;8.30;99.90;;;6.71;100.00;102852.53;4911142;28;20110;-81
2021/12/16 12:55:44;;;;;;;10.45;1.95;;;8.30;99.90;;;6.65;100.00;102852.53;4914134;28;20088;-81
2021/12/16 12:58:17;;;;;;;20.60;3.28;;;8.20;99.90;;;6.62;100.00;102852.50;4938253;28;20041;-81
2021/12/16 13:00:55;;;;;;;11.70;2.00;;;8.20;99.90;;;6.63;100.00;102864.75;4954676;28;20026;-81
2021/12/16 13:03:48;;;;;;;16.55;1.65;;;8.20;99.90;;;6.65;100.00;102865.63;4946631;28;20017;-82
2021/12/16 13:06:26;;;;;;;17.20;1.67;;;8.20;99.90;;;6.62;100.00;102864.72;4947906;28;20062;-82
2021/12/16 13:08:53;;;;;;;24.55;2.00;;;8.10;99.90;;;6.49;100.00;102863.81;4926947;28;20071;-81
2021/12/16 13:11:28;;;;;;;14.43;1.77;;;8.10;99.90;;;6.46;100.00;102861.19;4950411;28;20017;-80
2021/12/16 13:14:50;;;;;;;18.50;2.53;;;8.00;99.90;;;6.48;100.00;102854.19;4936013;28;20096;-81
2021/12/16 13:26:19;;;;;;;16.25;2.03;;;7.90;99.90;;;6.29;100.00;102866.34;4924579;28;20064;-82